sensor_id;sensor_type;location;lat;lon;timestamp;P1;durP1;ratioP1;P2;durP2;ratioP2
3995;SDS011;2012;49.794;9.722;2022-10-23T00:00:16;7.40;;;1.90;;
3995;SDS011;2012;49.794;9.722;2022-10-23T00:02:42;8.10;;;2.20;;
3995;SDS011;2012;49.794;9.722;2022-10-23T00:05:10;4.57;;;2.30;;
3995;SDS011;2012;49.794;9.722;2022-10-23T00:07:37;16.87;;;2.93;;
3995;SDS011;2012;49.794;9.722;2022-10-23T00:10:04;15.03;;;2.90;;
3995;SDS011;2012;49.794;9.722;2022-10-23T00:12:31;7.00;;;2.70;;
3995;SDS011;2012;49.794;9.722;2022-10-23T00:14:57;7.20;;;2.37;;
3995;SDS011;2012;49.794;9.722;2022-10-23T00:17:24;4.30;;;3.07;;
3995;SDS011;2012;49.794;9.722;2022-10-23T00:19:51;3.60;;;2.40;;
3995;SDS011;2012;49.794;9.722;2022-10-23T00:22:18;12.67;;;2.20;;
3995;SDS011;2012;49.794;9.722;2022-10-23T00:24:44;9.90;;;2.30;;
3995;SDS011;2012;49.794;9.722;2022-10-23T00:27:11;7.13;;;1.97;;
3995;SDS011;2012;49.794;9.722;2022-10-23T00:29:38;4.33;;;2.10;;
3995;SDS011;2012;49.794;9.722;2022-10-23T00:32:04;14.60;;;2.50;;
3995;SDS011;2012;49.794;9.722;2022-10-23T00:34:31;9.33;;;2.67;;
3995;SDS011;2012;49.794;9.722;2022-10-23T00:36:58;7.80;;;2.43;;
3995;SDS011;2012;49.794;9.722;2022-10-23T00:39:24;11.03;;;2.50;;
3995;SDS011;2012;49.794;9.722;2022-10-23T00:41:51;15.00;;;2.50;;
3995;SDS011;2012;49.794;9.722;2022-10-23T00:46:47;15.77;;;2.60;;
3995;SDS011;2012;49.794;9.722;2022-10-23T00:49:15;6.43;;;2.03;;
3995;SDS011;2012;49.794;9.722;2022-10-23T00:51:43;10.93;;;2.77;;
3995;SDS011;2012;49.794;9.722;2022-10-23T00:54:13;6.57;;;2.50;;
3995;SDS011;2012;49.794;9.722;2022-10-23T00:56:55;7.70;;;3.00;;
3995;SDS011;2012;49.794;9.722;2022-10-23T00:59:24;8.20;;;2.20;;
3995;SDS011;2012;49.794;9.722;2022-10-23T01:01:52;7.20;;;2.77;;
3995;SDS011;2012;49.794;9.722;2022-10-23T01:04:19;7.53;;;3.17;;
3995;SDS011;2012;49.794;9.722;2022-10-23T01:09:32;5.60;;;2.30;;
3995;SDS011;2012;49.794;9.722;2022-10-23T01:12:23;4.73;;;2.27;;
3995;SDS011;2012;49.794;9.722;2022-10-23T01:18:06;4.47;;;2.40;;
3995;SDS011;2012;49.794;9.722;2022-10-23T01:20:45;2.03;;;1.80;;
3995;SDS011;2012;49.794;9.722;2022-10-23T01:26:06;2.90;;;1.90;;
3995;SDS011;2012;49.794;9.722;2022-10-23T01:31:24;3.27;;;2.27;;
3995;SDS011;2012;49.794;9.722;2022-10-23T01:34:13;3.37;;;2.00;;
3995;SDS011;2012;49.794;9.722;2022-10-23T01:36:44;6.13;;;1.97;;
3995;SDS011;2012;49.794;9.722;2022-10-23T01:39:26;3.80;;;2.50;;
3995;SDS011;2012;49.794;9.722;2022-10-23T01:42:20;4.40;;;2.10;;
3995;SDS011;2012;49.794;9.722;2022-10-23T01:44:52;6.97;;;2.87;;
3995;SDS011;2012;49.794;9.722;2022-10-23T01:47:34;7.47;;;2.60;;
3995;SDS011;2012;49.794;9.722;2022-10-23T01:50:03;7.37;;;2.37;;
3995;SDS011;2012;49.794;9.722;2022-10-23T01:52:32;2.67;;;2.40;;
3995;SDS011;2012;49.794;9.722;2022-10-23T01:55:00;3.67;;;2.87;;
3995;SDS011;2012;49.794;9.722;2022-10-23T01:57:27;3.70;;;3.20;;
3995;SDS011;2012;49.794;9.722;2022-10-23T01:59:57;3.97;;;2.20;;
3995;SDS011;2012;49.794;9.722;2022-10-23T02:02:34;3.83;;;3.03;;
3995;SDS011;2012;49.794;9.722;2022-10-23T02:05:05;3.60;;;3.20;;
3995;SDS011;2012;49.794;9.722;2022-10-23T02:07:47;7.87;;;3.30;;
3995;SDS011;2012;49.794;9.722;2022-10-23T02:10:14;5.33;;;2.87;;
3995;SDS011;2012;49.794;9.722;2022-10-23T02:21:14;6.17;;;2.73;;
3995;SDS011;2012;49.794;9.722;2022-10-23T02:23:49;13.10;;;3.10;;
3995;SDS011;2012;49.794;9.722;2022-10-23T02:27:06;4.57;;;2.67;;
3995;SDS011;2012;49.794;9.722;2022-10-23T02:29:35;5.33;;;2.30;;
3995;SDS011;2012;49.794;9.722;2022-10-23T02:32:08;8.60;;;2.73;;
3995;SDS011;2012;49.794;9.722;2022-10-23T02:34:36;6.23;;;2.90;;
3995;SDS011;2012;49.794;9.722;2022-10-23T02:37:03;7.23;;;2.70;;
3995;SDS011;2012;49.794;9.722;2022-10-23T02:39:29;3.67;;;2.30;;
3995;SDS011;2012;49.794;9.722;2022-10-23T02:53:17;1.90;;;1.70;;
3995;SDS011;2012;49.794;9.722;2022-10-23T02:58:59;1.60;;;1.50;;
3995;SDS011;2012;49.794;9.722;2022-10-23T03:01:28;2.50;;;2.30;;
3995;SDS011;2012;49.794;9.722;2022-10-23T03:04:07;18.87;;;2.13;;
3995;SDS011;2012;49.794;9.722;2022-10-23T03:06:36;2.00;;;1.77;;
3995;SDS011;2012;49.794;9.722;2022-10-23T03:09:05;5.90;;;2.00;;
3995;SDS011;2012;49.794;9.722;2022-10-23T03:11:33;3.83;;;3.23;;
3995;SDS011;2012;49.794;9.722;2022-10-23T03:14:00;4.20;;;3.07;;
3995;SDS011;2012;49.794;9.722;2022-10-23T03:16:27;6.83;;;3.23;;
3995;SDS011;2012;49.794;9.722;2022-10-23T03:18:53;6.73;;;2.93;;
3995;SDS011;2012;49.794;9.722;2022-10-23T03:21:20;2.50;;;2.30;;
3995;SDS011;2012;49.794;9.722;2022-10-23T03:23:47;3.83;;;2.00;;
3995;SDS011;2012;49.794;9.722;2022-10-23T03:26:14;3.83;;;2.37;;
3995;SDS011;2012;49.794;9.722;2022-10-23T03:28:41;2.47;;;2.30;;
3995;SDS011;2012;49.794;9.722;2022-10-23T03:31:07;2.23;;;2.13;;
3995;SDS011;2012;49.794;9.722;2022-10-23T03:33:34;3.17;;;1.80;;
3995;SDS011;2012;49.794;9.722;2022-10-23T03:36:01;1.90;;;1.80;;
3995;SDS011;2012;49.794;9.722;2022-10-23T03:38:27;5.97;;;1.90;;
3995;SDS011;2012;49.794;9.722;2022-10-23T03:40:54;2.33;;;1.93;;
3995;SDS011;2012;49.794;9.722;2022-10-23T03:43:21;6.80;;;1.73;;
3995;SDS011;2012;49.794;9.722;2022-10-23T03:45:47;3.83;;;2.30;;
3995;SDS011;2012;49.794;9.722;2022-10-23T03:48:15;2.87;;;2.57;;
3995;SDS011;2012;49.794;9.722;2022-10-23T03:50:42;3.10;;;2.37;;
3995;SDS011;2012;49.794;9.722;2022-10-23T03:53:09;12.73;;;2.50;;
3995;SDS011;2012;49.794;9.722;2022-10-23T03:55:36;2.63;;;1.93;;
3995;SDS011;2012;49.794;9.722;2022-10-23T03:58:02;10.53;;;2.33;;
3995;SDS011;2012;49.794;9.722;2022-10-23T04:00:29;2.10;;;1.90;;
3995;SDS011;2012;49.794;9.722;2022-10-23T04:02:56;6.33;;;1.77;;
3995;SDS011;2012;49.794;9.722;2022-10-23T04:05:22;1.93;;;1.73;;
3995;SDS011;2012;49.794;9.722;2022-10-23T04:07:49;6.90;;;2.20;;
3995;SDS011;2012;49.794;9.722;2022-10-23T04:10:16;7.73;;;2.97;;
3995;SDS011;2012;49.794;9.722;2022-10-23T04:12:42;3.50;;;2.90;;
3995;SDS011;2012;49.794;9.722;2022-10-23T04:15:09;4.23;;;3.60;;
3995;SDS011;2012;49.794;9.722;2022-10-23T04:17:36;7.50;;;3.23;;
3995;SDS011;2012;49.794;9.722;2022-10-23T04:20:03;2.43;;;2.10;;
3995;SDS011;2012;49.794;9.722;2022-10-23T04:22:30;3.53;;;1.80;;
3995;SDS011;2012;49.794;9.722;2022-10-23T04:24:56;7.43;;;2.40;;
3995;SDS011;2012;49.794;9.722;2022-10-23T04:27:23;1.93;;;1.80;;
3995;SDS011;2012;49.794;9.722;2022-10-23T04:29:50;6.13;;;1.80;;
3995;SDS011;2012;49.794;9.722;2022-10-23T04:32:21;1.73;;;1.57;;
3995;SDS011;2012;49.794;9.722;2022-10-23T04:34:48;1.47;;;1.37;;
3995;SDS011;2012;49.794;9.722;2022-10-23T04:37:15;2.50;;;1.83;;
3995;SDS011;2012;49.794;9.722;2022-10-23T04:39:42;1.50;;;1.40;;
3995;SDS011;2012;49.794;9.722;2022-10-23T04:42:08;2.87;;;1.70;;
3995;SDS011;2012;49.794;9.722;2022-10-23T04:44:35;4.87;;;1.20;;
3995;SDS011;2012;49.794;9.722;2022-10-23T04:47:02;1.70;;;1.60;;
3995;SDS011;2012;49.794;9.722;2022-10-23T04:49:29;3.03;;;1.53;;
3995;SDS011;2012;49.794;9.722;2022-10-23T04:51:55;1.57;;;1.47;;
3995;SDS011;2012;49.794;9.722;2022-10-23T04:54:23;25.53;;;3.37;;
3995;SDS011;2012;49.794;9.722;2022-10-23T04:56:49;19.23;;;2.30;;
3995;SDS011;2012;49.794;9.722;2022-10-23T04:59:16;12.13;;;2.10;;
3995;SDS011;2012;49.794;9.722;2022-10-23T05:01:43;5.63;;;2.07;;
3995;SDS011;2012;49.794;9.722;2022-10-23T05:04:09;12.67;;;1.50;;
3995;SDS011;2012;49.794;9.722;2022-10-23T05:06:36;1.63;;;1.50;;
3995;SDS011;2012;49.794;9.722;2022-10-23T05:09:03;10.30;;;2.13;;
3995;SDS011;2012;49.794;9.722;2022-10-23T05:11:30;7.50;;;1.60;;
3995;SDS011;2012;49.794;9.722;2022-10-23T05:13:56;3.10;;;1.70;;
3995;SDS011;2012;49.794;9.722;2022-10-23T05:16:36;2.40;;;1.30;;
3995;SDS011;2012;49.794;9.722;2022-10-23T05:19:08;4.40;;;1.47;;
3995;SDS011;2012;49.794;9.722;2022-10-23T05:21:38;2.27;;;1.63;;
3995;SDS011;2012;49.794;9.722;2022-10-23T05:24:06;4.67;;;1.73;;
3995;SDS011;2012;49.794;9.722;2022-10-23T05:26:33;3.93;;;2.20;;
3995;SDS011;2012;49.794;9.722;2022-10-23T05:28:59;4.50;;;3.13;;
3995;SDS011;2012;49.794;9.722;2022-10-23T05:31:26;6.80;;;2.80;;
3995;SDS011;2012;49.794;9.722;2022-10-23T05:33:53;3.60;;;3.17;;
3995;SDS011;2012;49.794;9.722;2022-10-23T05:36:21;3.50;;;2.80;;
3995;SDS011;2012;49.794;9.722;2022-10-23T05:38:49;5.00;;;3.57;;
3995;SDS011;2012;49.794;9.722;2022-10-23T05:41:16;13.00;;;4.60;;
3995;SDS011;2012;49.794;9.722;2022-10-23T05:43:43;10.70;;;4.57;;
3995;SDS011;2012;49.794;9.722;2022-10-23T05:46:11;7.27;;;4.90;;
3995;SDS011;2012;49.794;9.722;2022-10-23T05:48:38;7.10;;;4.80;;
3995;SDS011;2012;49.794;9.722;2022-10-23T05:51:05;7.80;;;4.33;;
3995;SDS011;2012;49.794;9.722;2022-10-23T05:53:33;9.40;;;3.93;;
3995;SDS011;2012;49.794;9.722;2022-10-23T05:56:04;4.60;;;3.33;;
3995;SDS011;2012;49.794;9.722;2022-10-23T05:58:32;3.90;;;2.70;;
3995;SDS011;2012;49.794;9.722;2022-10-23T06:01:03;9.90;;;3.47;;
3995;SDS011;2012;49.794;9.722;2022-10-23T06:03:31;3.10;;;2.77;;
3995;SDS011;2012;49.794;9.722;2022-10-23T06:05:58;8.60;;;3.90;;
3995;SDS011;2012;49.794;9.722;2022-10-23T06:08:25;4.30;;;3.17;;
3995;SDS011;2012;49.794;9.722;2022-10-23T06:10:52;4.17;;;3.67;;
3995;SDS011;2012;49.794;9.722;2022-10-23T06:13:18;4.23;;;2.77;;
3995;SDS011;2012;49.794;9.722;2022-10-23T06:15:45;3.60;;;3.30;;
3995;SDS011;2012;49.794;9.722;2022-10-23T06:18:12;3.30;;;3.00;;
3995;SDS011;2012;49.794;9.722;2022-10-23T06:20:39;4.13;;;3.27;;
3995;SDS011;2012;49.794;9.722;2022-10-23T06:23:06;7.10;;;3.47;;
3995;SDS011;2012;49.794;9.722;2022-10-23T06:25:33;12.03;;;4.20;;
3995;SDS011;2012;49.794;9.722;2022-10-23T06:28:00;8.60;;;3.63;;
3995;SDS011;2012;49.794;9.722;2022-10-23T06:30:26;12.37;;;4.00;;
3995;SDS011;2012;49.794;9.722;2022-10-23T06:32:53;8.03;;;2.97;;
3995;SDS011;2012;49.794;9.722;2022-10-23T06:35:20;3.20;;;2.60;;
3995;SDS011;2012;49.794;9.722;2022-10-23T06:37:47;5.27;;;1.97;;
3995;SDS011;2012;49.794;9.722;2022-10-23T06:40:13;3.03;;;2.27;;
3995;SDS011;2012;49.794;9.722;2022-10-23T06:42:40;4.23;;;1.93;;
3995;SDS011;2012;49.794;9.722;2022-10-23T06:45:07;6.07;;;2.83;;
3995;SDS011;2012;49.794;9.722;2022-10-23T06:47:34;5.77;;;3.20;;
3995;SDS011;2012;49.794;9.722;2022-10-23T06:50:00;5.10;;;2.63;;
3995;SDS011;2012;49.794;9.722;2022-10-23T06:52:27;3.50;;;2.87;;
3995;SDS011;2012;49.794;9.722;2022-10-23T06:55:13;3.00;;;2.33;;
3995;SDS011;2012;49.794;9.722;2022-10-23T06:57:40;11.03;;;3.43;;
3995;SDS011;2012;49.794;9.722;2022-10-23T07:00:07;7.10;;;3.47;;
3995;SDS011;2012;49.794;9.722;2022-10-23T07:02:35;10.73;;;3.90;;
3995;SDS011;2012;49.794;9.722;2022-10-23T07:05:02;3.97;;;3.40;;
3995;SDS011;2012;49.794;9.722;2022-10-23T07:07:29;4.10;;;3.40;;
3995;SDS011;2012;49.794;9.722;2022-10-23T07:09:56;6.23;;;4.00;;
3995;SDS011;2012;49.794;9.722;2022-10-23T07:12:23;9.43;;;4.37;;
3995;SDS011;2012;49.794;9.722;2022-10-23T07:14:50;6.13;;;2.70;;
3995;SDS011;2012;49.794;9.722;2022-10-23T07:17:17;5.43;;;3.87;;
3995;SDS011;2012;49.794;9.722;2022-10-23T07:19:45;9.23;;;3.73;;
3995;SDS011;2012;49.794;9.722;2022-10-23T07:22:12;4.10;;;3.63;;
3995;SDS011;2012;49.794;9.722;2022-10-23T07:24:41;19.93;;;3.43;;
3995;SDS011;2012;49.794;9.722;2022-10-23T07:27:08;6.63;;;3.53;;
3995;SDS011;2012;49.794;9.722;2022-10-23T07:29:34;6.00;;;4.03;;
3995;SDS011;2012;49.794;9.722;2022-10-23T07:32:01;3.10;;;2.90;;
3995;SDS011;2012;49.794;9.722;2022-10-23T07:34:29;6.90;;;3.63;;
3995;SDS011;2012;49.794;9.722;2022-10-23T07:36:57;6.37;;;3.60;;
3995;SDS011;2012;49.794;9.722;2022-10-23T07:39:24;6.20;;;3.60;;
3995;SDS011;2012;49.794;9.722;2022-10-23T07:41:50;9.43;;;3.67;;
3995;SDS011;2012;49.794;9.722;2022-10-23T07:44:17;6.47;;;3.50;;
3995;SDS011;2012;49.794;9.722;2022-10-23T07:46:48;7.73;;;3.50;;
3995;SDS011;2012;49.794;9.722;2022-10-23T07:49:14;9.03;;;3.67;;
3995;SDS011;2012;49.794;9.722;2022-10-23T07:51:41;6.27;;;3.80;;
3995;SDS011;2012;49.794;9.722;2022-10-23T07:54:13;4.37;;;3.97;;
3995;SDS011;2012;49.794;9.722;2022-10-23T07:56:40;4.00;;;3.67;;
3995;SDS011;2012;49.794;9.722;2022-10-23T07:59:09;8.03;;;3.83;;
3995;SDS011;2012;49.794;9.722;2022-10-23T08:01:38;6.93;;;4.30;;
3995;SDS011;2012;49.794;9.722;2022-10-23T08:04:05;4.00;;;3.60;;
3995;SDS011;2012;49.794;9.722;2022-10-23T08:06:32;5.90;;;4.40;;
3995;SDS011;2012;49.794;9.722;2022-10-23T08:09:00;6.53;;;4.20;;
3995;SDS011;2012;49.794;9.722;2022-10-23T08:11:32;7.90;;;4.97;;
3995;SDS011;2012;49.794;9.722;2022-10-23T08:14:01;6.10;;;4.03;;
3995;SDS011;2012;49.794;9.722;2022-10-23T08:16:30;6.70;;;4.80;;
3995;SDS011;2012;49.794;9.722;2022-10-23T08:18:59;7.80;;;4.30;;
3995;SDS011;2012;49.794;9.722;2022-10-23T08:21:26;5.90;;;4.77;;
3995;SDS011;2012;49.794;9.722;2022-10-23T08:23:54;3.97;;;3.30;;
3995;SDS011;2012;49.794;9.722;2022-10-23T08:26:21;3.10;;;2.90;;
3995;SDS011;2012;49.794;9.722;2022-10-23T08:28:50;3.90;;;3.50;;
3995;SDS011;2012;49.794;9.722;2022-10-23T08:31:17;8.00;;;3.50;;
3995;SDS011;2012;49.794;9.722;2022-10-23T08:33:46;3.80;;;3.50;;
3995;SDS011;2012;49.794;9.722;2022-10-23T08:38:52;10.43;;;3.57;;
3995;SDS011;2012;49.794;9.722;2022-10-23T08:41:37;4.43;;;3.33;;
3995;SDS011;2012;49.794;9.722;2022-10-23T08:52:01;11.43;;;3.40;;
3995;SDS011;2012;49.794;9.722;2022-10-23T08:54:55;3.30;;;2.80;;
3995;SDS011;2012;49.794;9.722;2022-10-23T08:57:42;12.93;;;3.27;;
3995;SDS011;2012;49.794;9.722;2022-10-23T09:00:16;3.27;;;2.97;;
3995;SDS011;2012;49.794;9.722;2022-10-23T09:02:44;4.63;;;3.10;;
3995;SDS011;2012;49.794;9.722;2022-10-23T09:16:37;7.57;;;2.70;;
3995;SDS011;2012;49.794;9.722;2022-10-23T09:19:24;4.20;;;3.50;;
3995;SDS011;2012;49.794;9.722;2022-10-23T09:21:53;4.60;;;3.63;;
3995;SDS011;2012;49.794;9.722;2022-10-23T09:24:22;4.63;;;3.10;;
3995;SDS011;2012;49.794;9.722;2022-10-23T09:26:51;3.50;;;3.20;;
3995;SDS011;2012;49.794;9.722;2022-10-23T09:29:29;3.60;;;3.20;;
3995;SDS011;2012;49.794;9.722;2022-10-23T09:31:59;7.40;;;3.60;;
3995;SDS011;2012;49.794;9.722;2022-10-23T09:34:27;5.50;;;3.20;;
3995;SDS011;2012;49.794;9.722;2022-10-23T09:39:46;3.20;;;2.90;;
3995;SDS011;2012;49.794;9.722;2022-10-23T09:42:24;4.43;;;3.33;;
3995;SDS011;2012;49.794;9.722;2022-10-23T09:44:51;4.10;;;3.40;;
3995;SDS011;2012;49.794;9.722;2022-10-23T09:47:21;3.40;;;3.07;;
3995;SDS011;2012;49.794;9.722;2022-10-23T09:49:50;4.83;;;3.23;;
3995;SDS011;2012;49.794;9.722;2022-10-23T09:54:59;4.27;;;3.47;;
3995;SDS011;2012;49.794;9.722;2022-10-23T09:57:40;4.07;;;2.73;;
3995;SDS011;2012;49.794;9.722;2022-10-23T10:00:16;8.10;;;2.60;;
3995;SDS011;2012;49.794;9.722;2022-10-23T10:03:01;3.00;;;2.70;;
3995;SDS011;2012;49.794;9.722;2022-10-23T10:05:29;4.67;;;2.63;;
3995;SDS011;2012;49.794;9.722;2022-10-23T10:10:34;3.80;;;2.53;;
3995;SDS011;2012;49.794;9.722;2022-10-23T10:15:59;8.73;;;3.57;;
3995;SDS011;2012;49.794;9.722;2022-10-23T10:18:39;3.73;;;2.70;;
3995;SDS011;2012;49.794;9.722;2022-10-23T10:21:27;2.80;;;2.60;;
3995;SDS011;2012;49.794;9.722;2022-10-23T10:24:01;3.80;;;3.10;;
3995;SDS011;2012;49.794;9.722;2022-10-23T10:32:25;3.23;;;2.37;;
3995;SDS011;2012;49.794;9.722;2022-10-23T10:38:12;2.60;;;2.30;;
3995;SDS011;2012;49.794;9.722;2022-10-23T10:43:31;4.77;;;2.30;;
3995;SDS011;2012;49.794;9.722;2022-10-23T10:46:29;6.60;;;2.70;;
3995;SDS011;2012;49.794;9.722;2022-10-23T10:49:09;4.07;;;1.70;;
3995;SDS011;2012;49.794;9.722;2022-10-23T10:54:41;2.23;;;1.67;;
3995;SDS011;2012;49.794;9.722;2022-10-23T10:57:19;5.60;;;2.07;;
3995;SDS011;2012;49.794;9.722;2022-10-23T10:59:54;1.53;;;1.43;;
3995;SDS011;2012;49.794;9.722;2022-10-23T11:02:46;3.13;;;2.00;;
3995;SDS011;2012;49.794;9.722;2022-10-23T11:05:31;4.43;;;2.17;;
3995;SDS011;2012;49.794;9.722;2022-10-23T11:10:54;3.57;;;2.07;;
3995;SDS011;2012;49.794;9.722;2022-10-23T11:15:54;2.07;;;1.90;;
3995;SDS011;2012;49.794;9.722;2022-10-23T11:18:26;4.20;;;1.77;;
3995;SDS011;2012;49.794;9.722;2022-10-23T11:21:09;3.10;;;1.80;;
3995;SDS011;2012;49.794;9.722;2022-10-23T11:24:08;5.20;;;1.47;;
3995;SDS011;2012;49.794;9.722;2022-10-23T11:27:04;5.10;;;2.40;;
3995;SDS011;2012;49.794;9.722;2022-10-23T11:32:24;3.70;;;2.40;;
3995;SDS011;2012;49.794;9.722;2022-10-23T11:35:01;3.17;;;2.10;;
3995;SDS011;2012;49.794;9.722;2022-10-23T11:37:58;5.57;;;2.80;;
3995;SDS011;2012;49.794;9.722;2022-10-23T11:40:25;4.43;;;3.07;;
3995;SDS011;2012;49.794;9.722;2022-10-23T11:42:52;4.23;;;2.30;;
3995;SDS011;2012;49.794;9.722;2022-10-23T11:45:26;6.03;;;1.90;;
3995;SDS011;2012;49.794;9.722;2022-10-23T11:48:01;4.13;;;1.97;;
3995;SDS011;2012;49.794;9.722;2022-10-23T11:50:50;2.60;;;2.03;;
3995;SDS011;2012;49.794;9.722;2022-10-23T11:53:25;2.80;;;1.97;;
3995;SDS011;2012;49.794;9.722;2022-10-23T11:56:04;4.23;;;2.17;;
3995;SDS011;2012;49.794;9.722;2022-10-23T11:58:54;5.40;;;1.93;;
3995;SDS011;2012;49.794;9.722;2022-10-23T12:06:39;2.67;;;1.90;;
3995;SDS011;2012;49.794;9.722;2022-10-23T12:17:44;3.60;;;1.47;;
3995;SDS011;2012;49.794;9.722;2022-10-23T12:39:34;7.70;;;3.37;;
3995;SDS011;2012;49.794;9.722;2022-10-23T12:42:04;6.20;;;2.40;;
3995;SDS011;2012;49.794;9.722;2022-10-23T12:44:36;2.00;;;1.43;;
3995;SDS011;2012;49.794;9.722;2022-10-23T12:47:03;2.13;;;1.60;;
3995;SDS011;2012;49.794;9.722;2022-10-23T12:49:30;4.63;;;1.50;;
3995;SDS011;2012;49.794;9.722;2022-10-23T12:51:59;5.37;;;1.50;;
3995;SDS011;2012;49.794;9.722;2022-10-23T12:54:31;1.97;;;1.60;;
3995;SDS011;2012;49.794;9.722;2022-10-23T12:57:14;2.60;;;1.70;;
3995;SDS011;2012;49.794;9.722;2022-10-23T12:59:52;4.70;;;1.43;;
3995;SDS011;2012;49.794;9.722;2022-10-23T13:02:27;4.03;;;1.90;;
3995;SDS011;2012;49.794;9.722;2022-10-23T13:04:56;6.47;;;2.10;;
3995;SDS011;2012;49.794;9.722;2022-10-23T13:07:26;7.00;;;3.13;;
3995;SDS011;2012;49.794;9.722;2022-10-23T13:09:56;5.20;;;2.47;;
3995;SDS011;2012;49.794;9.722;2022-10-23T13:12:28;4.60;;;2.40;;
3995;SDS011;2012;49.794;9.722;2022-10-23T13:17:34;2.93;;;1.93;;
3995;SDS011;2012;49.794;9.722;2022-10-23T13:20:28;4.73;;;2.13;;
3995;SDS011;2012;49.794;9.722;2022-10-23T13:25:51;4.43;;;2.17;;
3995;SDS011;2012;49.794;9.722;2022-10-23T13:31:33;4.07;;;1.80;;
3995;SDS011;2012;49.794;9.722;2022-10-23T13:36:28;2.90;;;1.80;;
3995;SDS011;2012;49.794;9.722;2022-10-23T13:41:38;1.40;;;1.30;;
3995;SDS011;2012;49.794;9.722;2022-10-23T13:44:08;2.43;;;1.77;;
3995;SDS011;2012;49.794;9.722;2022-10-23T13:46:37;2.13;;;1.33;;
3995;SDS011;2012;49.794;9.722;2022-10-23T13:49:04;3.33;;;1.60;;
3995;SDS011;2012;49.794;9.722;2022-10-23T13:51:33;4.10;;;1.60;;
3995;SDS011;2012;49.794;9.722;2022-10-23T13:54:18;3.87;;;1.90;;
3995;SDS011;2012;49.794;9.722;2022-10-23T13:56:50;2.60;;;1.50;;
3995;SDS011;2012;49.794;9.722;2022-10-23T13:59:18;4.27;;;1.57;;
3995;SDS011;2012;49.794;9.722;2022-10-23T14:01:46;3.23;;;1.60;;
3995;SDS011;2012;49.794;9.722;2022-10-23T14:04:15;10.93;;;2.00;;
3995;SDS011;2012;49.794;9.722;2022-10-23T14:06:43;2.87;;;1.40;;
3995;SDS011;2012;49.794;9.722;2022-10-23T14:09:11;3.27;;;1.30;;
3995;SDS011;2012;49.794;9.722;2022-10-23T14:11:42;3.27;;;1.40;;
3995;SDS011;2012;49.794;9.722;2022-10-23T14:14:09;2.73;;;1.37;;
3995;SDS011;2012;49.794;9.722;2022-10-23T14:16:36;7.87;;;2.00;;
3995;SDS011;2012;49.794;9.722;2022-10-23T14:19:03;6.33;;;2.10;;
3995;SDS011;2012;49.794;9.722;2022-10-23T14:21:29;5.70;;;2.00;;
3995;SDS011;2012;49.794;9.722;2022-10-23T14:23:56;3.43;;;1.57;;
3995;SDS011;2012;49.794;9.722;2022-10-23T14:26:24;2.17;;;1.60;;
3995;SDS011;2012;49.794;9.722;2022-10-23T14:28:53;4.70;;;3.40;;
3995;SDS011;2012;49.794;9.722;2022-10-23T14:31:20;11.70;;;3.23;;
3995;SDS011;2012;49.794;9.722;2022-10-23T14:33:51;7.03;;;2.83;;
3995;SDS011;2012;49.794;9.722;2022-10-23T14:36:19;3.60;;;2.73;;
3995;SDS011;2012;49.794;9.722;2022-10-23T14:38:47;4.33;;;2.33;;
3995;SDS011;2012;49.794;9.722;2022-10-23T14:41:18;3.10;;;2.40;;
3995;SDS011;2012;49.794;9.722;2022-10-23T14:43:45;2.43;;;2.23;;
3995;SDS011;2012;49.794;9.722;2022-10-23T14:46:12;10.30;;;2.90;;
3995;SDS011;2012;49.794;9.722;2022-10-23T14:48:41;3.30;;;1.93;;
3995;SDS011;2012;49.794;9.722;2022-10-23T14:54:04;5.63;;;2.07;;
3995;SDS011;2012;49.794;9.722;2022-10-23T14:56:32;7.43;;;1.90;;
3995;SDS011;2012;49.794;9.722;2022-10-23T14:59:02;4.00;;;1.93;;
3995;SDS011;2012;49.794;9.722;2022-10-23T15:01:38;6.80;;;2.30;;
3995;SDS011;2012;49.794;9.722;2022-10-23T15:04:13;2.20;;;2.00;;
3995;SDS011;2012;49.794;9.722;2022-10-23T15:06:40;4.63;;;2.80;;
3995;SDS011;2012;49.794;9.722;2022-10-23T15:09:07;5.43;;;3.60;;
3995;SDS011;2012;49.794;9.722;2022-10-23T15:11:34;4.60;;;2.63;;
3995;SDS011;2012;49.794;9.722;2022-10-23T15:14:00;4.27;;;2.57;;
3995;SDS011;2012;49.794;9.722;2022-10-23T15:16:27;2.77;;;2.30;;
3995;SDS011;2012;49.794;9.722;2022-10-23T15:18:54;4.70;;;2.33;;
3995;SDS011;2012;49.794;9.722;2022-10-23T15:21:21;8.97;;;2.37;;
3995;SDS011;2012;49.794;9.722;2022-10-23T15:23:47;4.60;;;2.50;;
3995;SDS011;2012;49.794;9.722;2022-10-23T15:26:15;7.63;;;3.40;;
3995;SDS011;2012;49.794;9.722;2022-10-23T15:28:47;6.60;;;2.10;;
3995;SDS011;2012;49.794;9.722;2022-10-23T15:33:57;4.33;;;2.00;;
3995;SDS011;2012;49.794;9.722;2022-10-23T15:36:24;4.27;;;1.77;;
3995;SDS011;2012;49.794;9.722;2022-10-23T15:38:51;2.47;;;2.27;;
3995;SDS011;2012;49.794;9.722;2022-10-23T15:41:22;8.77;;;1.83;;
3995;SDS011;2012;49.794;9.722;2022-10-23T15:43:53;3.70;;;1.93;;
3995;SDS011;2012;49.794;9.722;2022-10-23T15:46:20;3.57;;;2.03;;
3995;SDS011;2012;49.794;9.722;2022-10-23T15:48:47;2.27;;;2.07;;
3995;SDS011;2012;49.794;9.722;2022-10-23T15:51:13;2.83;;;1.83;;
3995;SDS011;2012;49.794;9.722;2022-10-23T15:53:40;7.83;;;1.93;;
3995;SDS011;2012;49.794;9.722;2022-10-23T15:56:07;3.60;;;2.03;;
3995;SDS011;2012;49.794;9.722;2022-10-23T15:58:34;6.43;;;1.73;;
3995;SDS011;2012;49.794;9.722;2022-10-23T16:01:01;4.80;;;1.60;;
3995;SDS011;2012;49.794;9.722;2022-10-23T16:03:32;6.00;;;1.90;;
3995;SDS011;2012;49.794;9.722;2022-10-23T16:06:06;4.30;;;2.27;;
3995;SDS011;2012;49.794;9.722;2022-10-23T16:08:35;2.30;;;1.93;;
3995;SDS011;2012;49.794;9.722;2022-10-23T16:11:03;3.57;;;2.10;;
3995;SDS011;2012;49.794;9.722;2022-10-23T16:13:30;11.30;;;3.67;;
3995;SDS011;2012;49.794;9.722;2022-10-23T16:15:57;9.70;;;7.00;;
3995;SDS011;2012;49.794;9.722;2022-10-23T16:18:28;6.60;;;3.83;;
3995;SDS011;2012;49.794;9.722;2022-10-23T16:20:55;10.73;;;3.50;;
3995;SDS011;2012;49.794;9.722;2022-10-23T16:23:21;14.20;;;3.53;;
3995;SDS011;2012;49.794;9.722;2022-10-23T16:25:48;2.83;;;2.50;;
3995;SDS011;2012;49.794;9.722;2022-10-23T16:28:16;6.27;;;3.13;;
3995;SDS011;2012;49.794;9.722;2022-10-23T16:30:42;10.83;;;3.27;;
3995;SDS011;2012;49.794;9.722;2022-10-23T16:33:10;3.70;;;3.30;;
3995;SDS011;2012;49.794;9.722;2022-10-23T16:35:38;14.70;;;3.87;;
3995;SDS011;2012;49.794;9.722;2022-10-23T16:38:04;3.60;;;3.30;;
3995;SDS011;2012;49.794;9.722;2022-10-23T16:40:31;3.27;;;2.97;;
3995;SDS011;2012;49.794;9.722;2022-10-23T16:42:58;5.20;;;2.87;;
3995;SDS011;2012;49.794;9.722;2022-10-23T16:45:24;4.40;;;2.40;;
3995;SDS011;2012;49.794;9.722;2022-10-23T16:47:51;6.60;;;2.57;;
3995;SDS011;2012;49.794;9.722;2022-10-23T16:50:18;3.97;;;2.07;;
3995;SDS011;2012;49.794;9.722;2022-10-23T16:52:44;5.43;;;2.30;;
3995;SDS011;2012;49.794;9.722;2022-10-23T16:55:14;2.40;;;1.93;;
3995;SDS011;2012;49.794;9.722;2022-10-23T16:57:40;7.30;;;2.43;;
3995;SDS011;2012;49.794;9.722;2022-10-23T17:00:07;5.93;;;2.10;;
3995;SDS011;2012;49.794;9.722;2022-10-23T17:02:35;4.80;;;2.47;;
3995;SDS011;2012;49.794;9.722;2022-10-23T17:05:02;5.10;;;1.70;;
3995;SDS011;2012;49.794;9.722;2022-10-23T17:07:30;2.07;;;1.57;;
3995;SDS011;2012;49.794;9.722;2022-10-23T17:09:57;2.73;;;1.97;;
3995;SDS011;2012;49.794;9.722;2022-10-23T17:12:24;5.50;;;2.13;;
3995;SDS011;2012;49.794;9.722;2022-10-23T17:14:50;3.20;;;1.77;;
3995;SDS011;2012;49.794;9.722;2022-10-23T17:17:17;5.63;;;2.10;;
3995;SDS011;2012;49.794;9.722;2022-10-23T17:19:44;2.40;;;2.00;;
3995;SDS011;2012;49.794;9.722;2022-10-23T17:22:12;7.93;;;1.67;;
3995;SDS011;2012;49.794;9.722;2022-10-23T17:24:40;5.90;;;1.83;;
3995;SDS011;2012;49.794;9.722;2022-10-23T17:27:07;4.70;;;2.17;;
3995;SDS011;2012;49.794;9.722;2022-10-23T17:29:34;4.50;;;1.80;;
3995;SDS011;2012;49.794;9.722;2022-10-23T17:32:01;7.27;;;2.13;;
3995;SDS011;2012;49.794;9.722;2022-10-23T17:34:28;9.10;;;3.13;;
3995;SDS011;2012;49.794;9.722;2022-10-23T17:36:55;7.53;;;2.47;;
3995;SDS011;2012;49.794;9.722;2022-10-23T17:39:23;7.50;;;3.20;;
3995;SDS011;2012;49.794;9.722;2022-10-23T17:41:52;10.00;;;3.00;;
3995;SDS011;2012;49.794;9.722;2022-10-23T17:44:19;4.13;;;2.23;;
3995;SDS011;2012;49.794;9.722;2022-10-23T17:46:50;10.10;;;2.27;;
3995;SDS011;2012;49.794;9.722;2022-10-23T17:49:21;9.70;;;1.80;;
3995;SDS011;2012;49.794;9.722;2022-10-23T17:51:52;12.33;;;2.40;;
3995;SDS011;2012;49.794;9.722;2022-10-23T17:54:21;5.93;;;1.90;;
3995;SDS011;2012;49.794;9.722;2022-10-23T17:56:49;7.13;;;2.13;;